This is the latest recevied weather packets stored in our database for station/object JE7UPL-13. If no packets are shown the sender has not sent any weather packets the latest 10 day(s).
| Time | Temp. | Humidity | Pressure | Rain* | Wind** | Luminosity | Snow |
|---|---|---|---|---|---|---|---|
| 1788545705 | 16.67° C | 92% | 1009.4 hPa | 0 mm | - | - | - |
| 1788536706 | 18.33° C | 86% | 1009.5 hPa | 0 mm | - | - | - |
| 1788535806 | 18.33° C | 86% | 1009.4 hPa | 0 mm | - | - | - |
| 1788534905 | 18.33° C | 86% | 1009.6 hPa | 0 mm | - | - | - |
| 1788532206 | 18.89° C | 84% | 1009.7 hPa | 0 mm | - | - | - |
| 1788530406 | 18.89° C | 83% | 1009.7 hPa | 0 mm | - | - | - |
| 1788529506 | 18.89° C | 83% | 1009.7 hPa | 0 mm | - | - | - |
| 1788526806 | 18.89° C | 85% | 1009.7 hPa | 0 mm | - | - | - |
| 1788525906 | 18.33° C | 86% | 1009.6 hPa | 0 mm | - | - | - |
| 1788525006 | 18.33° C | 86% | 1009.3 hPa | 0 mm | - | - | - |
| 1788524106 | 18.89° C | 85% | 1009.5 hPa | 0 mm | - | - | - |
| 1788521407 | 18.89° C | 85% | 1009.3 hPa | 0 mm | - | - | - |
| 1788517807 | 20° C | 82% | 1009.3 hPa | 0 mm | - | - | - |
| 1788514206 | 21.11° C | 76% | 1008.5 hPa | 0 mm | - | - | - |
| 1788510606 | 23.33° C | 64% | 1008 hPa | 0 mm | - | - | - |
| 1788509706 | 23.33° C | 63% | 1007.9 hPa | 0 mm | - | - | - |
| 1788508806 | 23.89° C | 62% | 1008 hPa | 0 mm | - | - | - |
| 1788507006 | 23.33° C | 61% | 1007.9 hPa | 0 mm | - | - | - |
| 1788506106 | 24.44° C | 56% | 1007.9 hPa | 0 mm | - | - | - |
| 1788505207 | 22.78° C | 63% | 1007.6 hPa | 0 mm | - | - | - |
| 1788503406 | 23.89° C | 57% | 1007.4 hPa | 0 mm | - | - | - |
| 1788502505 | 23.89° C | 56% | 1007.2 hPa | 0 mm | - | - | - |
| 1788501607 | 23.89° C | 57% | 1007.4 hPa | 0 mm | - | - | - |
| 1788499806 | 25° C | 53% | 1007.1 hPa | 0 mm | - | - | - |
| 1788498905 | 25.56° C | 50% | 1007.3 hPa | 0 mm | - | - | - |
* Rain latest hour (hover to see other rain measurements)
** Current wind speed in m/s (hover to see current wind gust speed)